Аэропорт: Гомель. Гомель

ICAO: UMGG

METAR:
Информация по данной станции не доступна
METAR:
2021-10-22 22:59:00
TAF UMGG 222259Z 2300/2324 23007G12MPS 9999 BKN017 TEMPO 2300/2304 23009G14MPS BECMG 2304/2306 26008G13MPS TEMPO 2306/2318 27011G16MPS 2100 -SHRA SCT020CB